createdAt,value
2022-12-16T00:02:21.550Z,17.23
2022-12-16T00:04:48.013Z,18.30
2022-12-16T00:07:14.486Z,18.60
2022-12-16T00:09:40.982Z,17.50
2022-12-16T00:12:07.419Z,18.43
2022-12-16T00:14:34.654Z,18.60
2022-12-16T00:17:01.076Z,17.50
2022-12-16T00:19:27.692Z,17.47
2022-12-16T00:21:54.106Z,17.63
2022-12-16T00:24:21.185Z,18.63
2022-12-16T00:26:47.681Z,19.10
2022-12-16T00:29:14.209Z,18.57
2022-12-16T00:31:40.685Z,17.77
2022-12-16T00:34:07.159Z,17.67
2022-12-16T00:36:34.608Z,18.50
2022-12-16T00:39:01.203Z,17.03
2022-12-16T00:41:27.680Z,17.67
2022-12-16T00:43:54.081Z,17.80
2022-12-16T00:46:21.149Z,16.30
2022-12-16T00:48:47.588Z,17.23
2022-12-16T00:51:14.166Z,17.53
2022-12-16T00:53:40.561Z,18.17
2022-12-16T00:56:09.138Z,16.87
2022-12-16T00:58:36.560Z,16.83
2022-12-16T01:01:03.832Z,18.10
2022-12-16T01:03:30.731Z,17.27
2022-12-16T01:05:57.373Z,17.17
2022-12-16T01:08:23.769Z,18.77
2022-12-16T01:10:55.446Z,18.70
2022-12-16T01:13:23.010Z,18.77
2022-12-16T01:15:49.546Z,18.20
2022-12-16T01:18:18.747Z,17.47
2022-12-16T01:20:45.254Z,17.83
2022-12-16T01:23:11.661Z,18.90
2022-12-16T01:25:38.117Z,20.07
2022-12-16T01:28:04.608Z,18.03
2022-12-16T01:30:31.488Z,19.70
2022-12-16T01:32:57.880Z,19.97
2022-12-16T01:35:52.181Z,19.37
2022-12-16T01:38:10.824Z,18.90
2022-12-16T01:40:37.242Z,18.30
2022-12-16T01:43:11.312Z,19.10
2022-12-16T01:45:38.798Z,18.57
2022-12-16T01:48:28.004Z,18.87
2022-12-16T01:50:59.765Z,18.87
2022-12-16T01:53:26.364Z,19.23
2022-12-16T01:55:53.488Z,18.33
2022-12-16T01:58:24.067Z,19.47
2022-12-16T02:00:50.782Z,18.90
2022-12-16T02:03:17.623Z,19.17
2022-12-16T02:05:44.922Z,19.63
2022-12-16T02:08:19.362Z,19.40
2022-12-16T02:11:19.442Z,19.80
2022-12-16T02:13:54.162Z,19.03
2022-12-16T02:16:30.004Z,18.17
2022-12-16T02:19:01.970Z,18.37
2022-12-16T02:21:28.311Z,18.27
2022-12-16T02:24:33.808Z,18.33
2022-12-16T02:27:12.574Z,18.87
2022-12-16T02:30:03.316Z,19.50
2022-12-16T02:33:02.080Z,20.00
2022-12-16T02:35:50.375Z,18.77
2022-12-16T02:38:26.257Z,19.93
2022-12-16T02:40:57.723Z,19.23
2022-12-16T02:43:57.474Z,18.17
2022-12-16T02:46:26.761Z,19.63
2022-12-16T02:48:54.247Z,19.23
2022-12-16T02:51:22.148Z,20.37
2022-12-16T02:53:49.101Z,19.40
2022-12-16T02:56:27.773Z,19.33
2022-12-16T02:59:12.743Z,19.60
2022-12-16T03:01:50.121Z,18.07
2022-12-16T03:04:21.835Z,18.40
2022-12-16T03:06:50.229Z,18.63
2022-12-16T03:09:20.533Z,19.00
2022-12-16T03:11:48.265Z,18.67
2022-12-16T03:14:16.773Z,19.27
2022-12-16T03:16:44.296Z,19.80
2022-12-16T03:19:11.755Z,20.47
2022-12-16T03:21:55.857Z,19.50
2022-12-16T03:24:22.247Z,19.43
2022-12-16T03:26:57.113Z,19.00
2022-12-16T03:29:40.579Z,18.10
2022-12-16T03:32:15.678Z,18.80
2022-12-16T03:34:45.591Z,18.20
2022-12-16T03:37:12.974Z,18.83
2022-12-16T03:39:46.461Z,18.10
2022-12-16T03:42:15.354Z,18.03
2022-12-16T03:44:48.849Z,19.03
2022-12-16T03:47:21.507Z,19.30
2022-12-16T03:49:49.951Z,19.90
2022-12-16T03:52:16.593Z,18.50
2022-12-16T03:54:43.005Z,19.23
2022-12-16T03:57:15.038Z,18.97
2022-12-16T03:59:42.095Z,19.13
2022-12-16T04:02:08.707Z,18.50
2022-12-16T04:04:35.405Z,19.67
2022-12-16T04:07:20.206Z,18.53
2022-12-16T04:09:47.732Z,19.20
2022-12-16T04:12:33.365Z,18.43
2022-12-16T04:15:18.501Z,18.70
2022-12-16T04:18:03.507Z,19.17
2022-12-16T04:20:50.482Z,18.73
2022-12-16T04:23:36.316Z,19.10
2022-12-16T04:26:02.998Z,18.57
2022-12-16T04:28:29.679Z,19.60
2022-12-16T04:30:56.482Z,19.17
2022-12-16T04:33:41.594Z,19.40
2022-12-16T04:36:27.117Z,18.80
2022-12-16T04:39:12.162Z,19.60
2022-12-16T04:41:57.175Z,19.47
2022-12-16T04:44:42.337Z,18.40
2022-12-16T04:47:27.497Z,19.80
2022-12-16T04:50:12.449Z,17.57
2022-12-16T04:52:57.703Z,18.13
2022-12-16T04:55:42.578Z,18.57
2022-12-16T04:58:27.662Z,17.73
2022-12-16T05:01:12.750Z,18.00
2022-12-16T05:03:57.750Z,18.33
2022-12-16T05:06:42.613Z,18.03
2022-12-16T05:09:27.719Z,17.47
2022-12-16T05:12:12.819Z,18.10
2022-12-16T05:14:57.945Z,16.87
2022-12-16T05:17:43.012Z,18.17
2022-12-16T05:20:28.527Z,18.30
2022-12-16T05:23:14.733Z,19.00
2022-12-16T05:25:59.852Z,18.63
2022-12-16T05:28:44.717Z,18.77
2022-12-16T05:31:29.979Z,19.17
2022-12-16T05:34:15.115Z,19.30
2022-12-16T05:37:00.315Z,18.80
2022-12-16T05:39:45.227Z,19.80
2022-12-16T05:42:30.302Z,19.37
2022-12-16T05:45:15.268Z,17.37
2022-12-16T05:48:00.244Z,18.53
2022-12-16T05:50:45.181Z,18.40
2022-12-16T05:53:30.801Z,20.00
2022-12-16T05:56:15.817Z,18.73
2022-12-16T05:59:00.806Z,18.50
2022-12-16T06:01:46.048Z,18.40
2022-12-16T06:04:31.148Z,18.50
2022-12-16T06:07:16.100Z,18.97
2022-12-16T06:10:01.146Z,19.10
2022-12-16T06:12:46.225Z,18.87
2022-12-16T06:15:31.387Z,18.30
2022-12-16T06:18:16.262Z,18.27
2022-12-16T06:21:01.979Z,17.93
2022-12-16T06:23:47.120Z,17.43
2022-12-16T06:26:32.062Z,17.47
2022-12-16T06:29:17.166Z,17.73
2022-12-16T06:32:02.283Z,17.10
2022-12-16T06:34:47.419Z,17.87
2022-12-16T06:37:32.479Z,17.17
2022-12-16T06:40:17.389Z,16.77
2022-12-16T06:43:02.400Z,17.20
2022-12-16T06:45:47.414Z,17.33
2022-12-16T06:48:32.510Z,17.70
2022-12-16T06:51:17.532Z,17.30
2022-12-16T06:54:02.690Z,18.97
2022-12-16T06:56:47.774Z,17.97
2022-12-16T06:59:32.845Z,19.73
2022-12-16T07:02:18.038Z,19.70
2022-12-16T07:05:03.269Z,17.97
2022-12-16T07:07:48.550Z,18.60
2022-12-16T07:10:33.596Z,19.70
2022-12-16T07:13:19.303Z,18.97
2022-12-16T07:16:10.519Z,18.90
2022-12-16T07:18:55.503Z,18.43
2022-12-16T07:21:40.633Z,19.47
2022-12-16T07:24:25.597Z,18.50
2022-12-16T07:27:10.609Z,18.77
2022-12-16T07:29:55.673Z,19.20
2022-12-16T07:32:40.919Z,17.47
2022-12-16T07:35:33.721Z,18.03
2022-12-16T07:38:18.566Z,19.37
2022-12-16T07:41:03.648Z,21.43
2022-12-16T07:43:48.804Z,21.93
2022-12-16T07:46:33.975Z,22.70
2022-12-16T07:49:19.181Z,21.90
2022-12-16T07:52:03.943Z,23.03
2022-12-16T07:54:49.150Z,22.03
2022-12-16T07:57:34.272Z,20.80
2022-12-16T08:00:19.249Z,22.63
2022-12-16T08:03:04.618Z,23.03
2022-12-16T08:05:50.073Z,23.30
2022-12-16T08:08:36.089Z,25.03
2022-12-16T08:11:21.108Z,27.50
2022-12-16T08:14:06.072Z,27.77
2022-12-16T08:16:51.238Z,25.90
2022-12-16T08:19:36.238Z,24.83
2022-12-16T08:22:21.336Z,25.80
2022-12-16T08:25:06.449Z,25.17
2022-12-16T08:27:51.752Z,23.70
2022-12-16T08:30:36.965Z,21.57
2022-12-16T08:33:29.233Z,21.00
2022-12-16T08:36:16.959Z,20.70
2022-12-16T08:39:02.677Z,22.37
2022-12-16T08:41:47.783Z,23.47
2022-12-16T08:44:32.658Z,24.60
2022-12-16T08:47:18.044Z,23.47
2022-12-16T08:50:03.188Z,23.57
2022-12-16T08:52:48.190Z,26.20
2022-12-16T08:55:33.238Z,23.83
2022-12-16T08:58:18.315Z,23.47
2022-12-16T09:01:07.051Z,22.03
2022-12-16T09:03:54.114Z,22.03
2022-12-16T09:06:40.890Z,22.23
2022-12-16T09:09:26.557Z,23.17
2022-12-16T09:12:11.501Z,22.63
2022-12-16T09:14:56.680Z,22.67
2022-12-16T09:17:41.655Z,20.63
2022-12-16T09:20:27.221Z,22.17
2022-12-16T09:23:12.166Z,22.40
2022-12-16T09:25:57.340Z,21.77
2022-12-16T09:28:42.556Z,22.40
2022-12-16T09:31:27.855Z,23.80
2022-12-16T09:34:13.013Z,24.10
2022-12-16T09:36:58.056Z,25.17
2022-12-16T09:39:45.790Z,26.20
2022-12-16T09:42:50.817Z,25.73
2022-12-16T09:46:11.509Z,24.93
2022-12-16T09:49:25.421Z,22.33
2022-12-16T09:52:15.004Z,22.87
2022-12-16T09:55:04.652Z,21.30
2022-12-16T09:57:51.710Z,21.93
2022-12-16T10:00:42.173Z,22.67
2022-12-16T10:04:00.064Z,20.83
2022-12-16T10:07:00.584Z,21.87
2022-12-16T10:09:50.558Z,21.10
2022-12-16T10:12:56.297Z,20.73
2022-12-16T10:15:57.989Z,20.23
2022-12-16T10:19:06.073Z,19.13
2022-12-16T10:21:56.002Z,20.07
2022-12-16T10:25:07.269Z,19.90
2022-12-16T10:28:04.554Z,18.87
2022-12-16T10:30:51.102Z,19.30
2022-12-16T10:33:37.908Z,20.80
2022-12-16T10:36:23.548Z,20.67
2022-12-16T10:39:14.414Z,19.70
2022-12-16T10:42:04.303Z,20.30
2022-12-16T10:45:14.175Z,21.17
2022-12-16T10:47:59.294Z,18.90
2022-12-16T10:50:44.482Z,20.17
2022-12-16T10:53:35.062Z,20.53
2022-12-16T10:56:26.598Z,20.10
2022-12-16T10:59:18.336Z,21.30
2022-12-16T11:02:35.452Z,20.63
2022-12-16T11:05:20.782Z,19.80
2022-12-16T11:08:05.807Z,22.00
2022-12-16T11:11:02.433Z,21.17
2022-12-16T11:13:55.044Z,20.30
2022-12-16T11:16:47.638Z,20.63
2022-12-16T11:19:44.585Z,22.40
2022-12-16T11:22:36.937Z,20.40
2022-12-16T11:25:31.193Z,22.53
2022-12-16T11:28:23.070Z,21.80
2022-12-16T11:31:11.995Z,21.43
2022-12-16T11:33:58.334Z,21.83
2022-12-16T11:36:45.298Z,23.57
2022-12-16T11:39:33.794Z,22.37
2022-12-16T11:42:19.470Z,22.37
2022-12-16T11:45:10.156Z,22.37
2022-12-16T11:48:04.892Z,21.37
2022-12-16T11:50:53.091Z,22.33
2022-12-16T11:53:45.120Z,23.00
2022-12-16T11:56:42.895Z,22.70
2022-12-16T11:59:43.446Z,24.07
2022-12-16T12:02:37.552Z,25.27
2022-12-16T12:05:22.944Z,24.47
2022-12-16T12:08:23.559Z,24.23
2022-12-16T12:11:32.344Z,24.90
2022-12-16T12:14:23.602Z,24.70
2022-12-16T12:17:20.970Z,23.37
2022-12-16T12:20:17.314Z,26.07
2022-12-16T12:23:02.700Z,26.37
2022-12-16T12:26:13.197Z,25.67
2022-12-16T12:29:14.122Z,25.53
2022-12-16T12:32:25.622Z,24.00
2022-12-16T12:35:22.287Z,23.30
2022-12-16T12:38:33.568Z,24.17
2022-12-16T12:41:37.924Z,22.20
2022-12-16T12:44:36.760Z,23.17
2022-12-16T12:47:32.814Z,24.47
2022-12-16T12:50:32.768Z,23.80
2022-12-16T12:53:27.615Z,23.70
2022-12-16T12:56:48.080Z,23.53
2022-12-16T13:00:03.935Z,21.90
2022-12-16T13:03:34.003Z,21.47
2022-12-16T13:06:19.948Z,22.63
2022-12-16T13:09:08.108Z,23.10
2022-12-16T13:11:53.968Z,23.27
2022-12-16T13:14:49.130Z,23.17
2022-12-16T13:17:35.036Z,23.67
2022-12-16T13:20:20.926Z,23.77
2022-12-16T13:23:06.068Z,22.63
2022-12-16T13:26:10.344Z,22.80
2022-12-16T13:28:57.898Z,22.87
2022-12-16T13:31:43.571Z,22.53
2022-12-16T13:34:28.606Z,23.20
2022-12-16T13:37:19.485Z,21.83
2022-12-16T13:40:24.208Z,21.27
2022-12-16T13:43:12.308Z,21.13
2022-12-16T13:46:23.037Z,22.30
2022-12-16T13:49:08.508Z,21.73
2022-12-16T13:51:56.524Z,21.03
2022-12-16T13:54:55.110Z,20.77
2022-12-16T13:57:42.635Z,20.57
2022-12-16T14:00:41.967Z,20.30
2022-12-16T14:03:38.698Z,20.30
2022-12-16T14:06:27.745Z,19.23
2022-12-16T14:09:13.174Z,20.03
2022-12-16T14:11:58.475Z,20.07
2022-12-16T14:14:54.925Z,19.57
2022-12-16T14:17:52.079Z,19.87
2022-12-16T14:20:49.389Z,21.13
2022-12-16T14:23:55.725Z,22.50
2022-12-16T14:26:39.289Z,21.33
2022-12-16T14:29:46.240Z,22.60
2022-12-16T14:32:52.417Z,21.13
2022-12-16T14:35:41.934Z,20.80
2022-12-16T14:38:49.085Z,20.00
2022-12-16T14:41:37.583Z,20.00
2022-12-16T14:44:24.632Z,26.73
2022-12-16T14:47:10.269Z,24.90
2022-12-16T14:49:55.321Z,21.17
2022-12-16T14:52:43.002Z,20.60
2022-12-16T14:55:49.414Z,21.03
2022-12-16T14:58:36.972Z,20.83
2022-12-16T15:01:32.538Z,20.90
2022-12-16T15:04:18.845Z,19.30
2022-12-16T15:07:07.051Z,21.10
2022-12-16T15:10:00.609Z,19.73
2022-12-16T15:12:48.152Z,21.57
2022-12-16T15:15:51.388Z,21.27
2022-12-16T15:18:40.615Z,21.20
2022-12-16T15:21:26.128Z,22.67
2022-12-16T15:24:11.271Z,21.60
2022-12-16T15:26:56.163Z,20.67
2022-12-16T15:29:55.488Z,21.27
2022-12-16T15:32:52.674Z,21.80
2022-12-16T15:36:04.871Z,20.60
2022-12-16T15:38:51.788Z,20.00
2022-12-16T15:41:42.209Z,20.87
2022-12-16T15:44:38.377Z,20.50
2022-12-16T15:47:24.442Z,20.87
2022-12-16T15:50:09.667Z,20.90
2022-12-16T15:52:59.755Z,22.27
2022-12-16T15:55:46.433Z,22.27
2022-12-16T15:58:47.396Z,22.77
2022-12-16T16:01:34.717Z,22.37
2022-12-16T16:04:20.457Z,23.03
2022-12-16T16:07:11.987Z,22.27
2022-12-16T16:09:58.151Z,25.80
2022-12-16T16:12:43.907Z,24.67
2022-12-16T16:15:31.130Z,24.67
2022-12-16T16:18:18.749Z,23.53
2022-12-16T16:21:04.479Z,23.93
2022-12-16T16:23:51.173Z,23.93
2022-12-16T16:26:38.873Z,23.13
2022-12-16T16:29:24.209Z,23.70
2022-12-16T16:32:09.423Z,22.90
2022-12-16T16:34:54.307Z,24.43
2022-12-16T16:37:40.504Z,25.67
2022-12-16T16:40:41.253Z,26.03
2022-12-16T16:43:26.265Z,25.67
2022-12-16T16:46:13.196Z,22.23
2022-12-16T16:48:58.698Z,23.23
2022-12-16T16:51:43.756Z,24.30
2022-12-16T16:54:28.820Z,25.73
2022-12-16T16:57:13.796Z,27.43
2022-12-16T16:59:58.779Z,26.80
2022-12-16T17:02:43.985Z,25.37
2022-12-16T17:05:29.759Z,24.13
2022-12-16T17:08:15.208Z,25.57
2022-12-16T17:11:00.833Z,26.53
2022-12-16T17:13:45.920Z,24.10
2022-12-16T17:16:32.134Z,27.60
2022-12-16T17:19:17.789Z,27.90
2022-12-16T17:22:02.631Z,26.23
2022-12-16T17:24:50.316Z,25.70
2022-12-16T17:27:40.790Z,27.07
2022-12-16T17:30:40.789Z,25.77
2022-12-16T17:33:30.176Z,23.87
2022-12-16T17:36:15.313Z,24.33
2022-12-16T17:39:01.765Z,25.43
2022-12-16T17:41:48.296Z,23.33
2022-12-16T17:44:33.381Z,24.73
2022-12-16T17:47:18.810Z,24.90
2022-12-16T17:50:03.850Z,24.00
2022-12-16T17:52:49.251Z,25.70
2022-12-16T17:55:34.339Z,25.93
2022-12-16T17:58:19.527Z,24.93
2022-12-16T18:01:04.491Z,24.57
2022-12-16T18:03:49.279Z,25.20
2022-12-16T18:06:34.346Z,24.97
2022-12-16T18:09:19.212Z,27.07
2022-12-16T18:12:04.182Z,27.27
2022-12-16T18:14:49.243Z,29.83
2022-12-16T18:17:34.567Z,28.37
2022-12-16T18:20:19.691Z,27.17
2022-12-16T18:23:04.625Z,28.73
2022-12-16T18:25:49.719Z,26.70
2022-12-16T18:28:34.767Z,28.93
2022-12-16T18:31:23.807Z,31.73
2022-12-16T18:34:08.961Z,30.33
2022-12-16T18:36:54.063Z,29.43
2022-12-16T18:39:38.997Z,31.03
2022-12-16T18:42:24.194Z,28.07
2022-12-16T18:45:09.628Z,29.20
2022-12-16T18:47:54.719Z,28.60
2022-12-16T18:50:39.932Z,28.40
2022-12-16T18:53:25.119Z,28.17
2022-12-16T18:56:20.576Z,30.47
2022-12-16T18:59:05.725Z,28.57
2022-12-16T19:01:51.113Z,29.83
2022-12-16T19:04:36.087Z,28.90
2022-12-16T19:07:21.076Z,28.07
2022-12-16T19:10:05.985Z,28.53
2022-12-16T19:12:51.112Z,29.27
2022-12-16T19:15:41.022Z,28.97
2022-12-16T19:18:26.463Z,28.87
2022-12-16T19:21:15.518Z,28.87
2022-12-16T19:24:01.122Z,30.20
2022-12-16T19:26:45.949Z,27.70
2022-12-16T19:29:30.771Z,28.17
2022-12-16T19:32:15.855Z,28.07
2022-12-16T19:35:01.019Z,29.30
2022-12-16T19:37:46.117Z,30.50
2022-12-16T19:40:31.179Z,30.43
2022-12-16T19:43:16.359Z,31.07
2022-12-16T19:46:01.413Z,30.47
2022-12-16T19:48:46.608Z,31.40
2022-12-16T19:51:36.107Z,28.67
2022-12-16T19:54:21.371Z,32.47
2022-12-16T19:57:06.318Z,31.27
2022-12-16T19:59:51.711Z,30.20
2022-12-16T20:02:37.170Z,30.27
2022-12-16T20:05:22.472Z,31.17
2022-12-16T20:08:07.521Z,31.17
2022-12-16T20:10:54.896Z,31.10
2022-12-16T20:13:41.373Z,30.40
2022-12-16T20:16:28.344Z,29.80
2022-12-16T20:19:13.537Z,27.77
2022-12-16T20:22:04.558Z,27.17
2022-12-16T20:24:51.352Z,26.53
2022-12-16T20:27:36.883Z,26.87
2022-12-16T20:30:22.518Z,26.97
2022-12-16T20:33:07.538Z,27.67
2022-12-16T20:35:52.314Z,27.87
2022-12-16T20:38:41.138Z,27.40
2022-12-16T20:41:26.333Z,29.03
2022-12-16T20:44:11.232Z,27.00
2022-12-16T20:46:56.443Z,28.73
2022-12-16T20:49:41.730Z,28.50
2022-12-16T20:52:26.654Z,27.63
2022-12-16T20:55:11.736Z,27.33
2022-12-16T20:57:56.801Z,27.23
2022-12-16T21:00:42.037Z,28.37
2022-12-16T21:03:27.679Z,26.57
2022-12-16T21:06:12.839Z,27.90
2022-12-16T21:08:58.112Z,28.80
2022-12-16T21:11:43.163Z,28.13
2022-12-16T21:14:28.414Z,28.60
2022-12-16T21:17:13.557Z,26.93
2022-12-16T21:20:15.046Z,25.23
2022-12-16T21:23:00.447Z,27.27
2022-12-16T21:25:45.355Z,27.00
2022-12-16T21:28:31.423Z,26.23
2022-12-16T21:31:19.558Z,25.13
2022-12-16T21:34:04.260Z,26.23
2022-12-16T21:36:49.214Z,26.53
2022-12-16T21:39:34.316Z,26.13
2022-12-16T21:42:19.386Z,26.93
2022-12-16T21:45:04.180Z,27.23
2022-12-16T21:47:49.208Z,26.23
2022-12-16T21:50:34.218Z,26.20
2022-12-16T21:53:19.395Z,26.43
2022-12-16T21:56:10.536Z,25.90
2022-12-16T21:58:55.684Z,26.33
2022-12-16T22:01:40.482Z,26.47
2022-12-16T22:04:25.718Z,26.20
2022-12-16T22:07:24.510Z,27.20
2022-12-16T22:10:09.679Z,25.93
2022-12-16T22:12:56.198Z,25.53
2022-12-16T22:15:41.517Z,26.23
2022-12-16T22:18:26.629Z,26.40
2022-12-16T22:21:20.634Z,30.10
2022-12-16T22:24:05.717Z,28.77
2022-12-16T22:26:50.900Z,24.97
2022-12-16T22:29:38.675Z,25.57
2022-12-16T22:32:24.177Z,25.80
2022-12-16T22:35:09.048Z,26.30
2022-12-16T22:37:54.338Z,26.50
2022-12-16T22:40:41.292Z,26.47
2022-12-16T22:43:26.097Z,25.30
2022-12-16T22:46:21.735Z,27.20
2022-12-16T22:49:06.788Z,25.53
2022-12-16T22:51:52.382Z,44.33
2022-12-16T22:54:39.088Z,34.87
2022-12-16T22:57:24.144Z,26.27
2022-12-16T23:00:09.031Z,24.57
2022-12-16T23:02:54.834Z,25.40
2022-12-16T23:05:39.842Z,25.30
2022-12-16T23:08:24.551Z,24.50
2022-12-16T23:11:17.266Z,25.07
2022-12-16T23:14:02.560Z,24.30
2022-12-16T23:16:48.089Z,24.40
2022-12-16T23:19:33.116Z,23.73
2022-12-16T23:22:18.235Z,24.13
2022-12-16T23:25:03.330Z,23.33
2022-12-16T23:27:48.503Z,23.97
2022-12-16T23:30:33.544Z,24.73
2022-12-16T23:33:19.912Z,22.47
2022-12-16T23:36:04.911Z,23.40
2022-12-16T23:38:50.085Z,23.10
2022-12-16T23:41:35.223Z,23.03
2022-12-16T23:44:19.931Z,22.37
2022-12-16T23:47:04.852Z,22.30
2022-12-16T23:49:49.921Z,22.67
2022-12-16T23:52:35.047Z,24.63
2022-12-16T23:55:19.970Z,23.40
2022-12-16T23:58:05.168Z,24.07
